»·PEaware :: N700EN KLAS-KPMD

N700EN :: KLAS-KPMD

FLIGHT INFORMATION

Flight Status: Arrived
Operator: Privately registered:
United States
More flights under this callsign
Pilot: James L. (28459)
Aircraft: SOCATA TBM-900
(TBM9)
More flights by this aircraft type
Origin: KLAS McCarran Intl
United States
Destination: KPMD Palmdale AF Plant 42
United States
More flights between these airports :: More routes between these airports
Route: +HEC PMD
File this flight plan on PilotEdge
Remarks:
Altitude:
(Current/Filed)
0ft
Speed:
(Current/Filed)
0kts
Departed: 18-Mar-20 02:58 PM
Arrived: 18-Mar-20 03:50 PM
Distance/Time
Traveled:
168nm/0:52
Distance/Time
To Go:
Arrived

Flight Plot

Page will automatically refresh every two minutes.

Flight plan parsing failed; only flown route is shown


Map Options




Map Legend


Flown Route
Filed Route
Departure Airport
Arrival Airport
Navaid (VOR, NDB)
Fix

Horizontal Profiles

Position Reports

Time Latitude Longitude Heading Altitude Ground
Speed
18-Mar-20 14:39 36.081250 -115.172039 89 2170ft 0kts
18-Mar-20 14:40 36.081250 -115.172039 89 2170ft 0kts
18-Mar-20 14:41 36.081250 -115.172039 89 2170ft 0kts
18-Mar-20 14:42 36.081250 -115.172039 89 2170ft 0kts
18-Mar-20 14:43 36.081250 -115.172039 89 2170ft 0kts
18-Mar-20 14:44 36.081250 -115.172039 89 2170ft 0kts
18-Mar-20 14:45 36.081250 -115.172039 89 2170ft 0kts
18-Mar-20 14:46 36.081250 -115.172039 89 2170ft 0kts
18-Mar-20 14:47 36.081250 -115.172039 89 2170ft 0kts
18-Mar-20 14:48 36.081373 -115.171303 74 2168ft 9kts
18-Mar-20 14:49 36.082943 -115.168413 24 2159ft 13kts
18-Mar-20 14:50 36.087325 -115.165903 25 2141ft 16kts
18-Mar-20 14:51 36.091169 -115.163702 25 2123ft 15kts
18-Mar-20 14:52 36.094936 -115.161553 25 2106ft 14kts
18-Mar-20 14:53 36.098592 -115.159450 25 2094ft 14kts
18-Mar-20 14:54 36.099839 -115.157553 92 2085ft 0kts
18-Mar-20 14:55 36.099839 -115.157553 92 2085ft 0kts
18-Mar-20 14:56 36.099839 -115.157553 92 2085ft 0kts
18-Mar-20 14:57 36.083674 -115.163911 185 2307ft 149kts
18-Mar-20 14:58 36.041584 -115.170469 186 4679ft 157kts
18-Mar-20 14:59 36.002909 -115.175968 186 5064ft 219kts
18-Mar-20 15:00 35.942603 -115.185521 208 6497ft 199kts
18-Mar-20 15:01 35.919423 -115.236960 243 9152ft 160kts
18-Mar-20 15:02 35.883227 -115.267175 172 9865ft 223kts
18-Mar-20 15:03 35.815295 -115.253580 171 8894ft 256kts
18-Mar-20 15:04 35.741869 -115.238814 171 8534ft 255kts
18-Mar-20 15:05 35.672829 -115.224804 171 8508ft 250kts
18-Mar-20 15:06 35.604412 -115.210874 171 8508ft 249kts
18-Mar-20 15:07 35.536955 -115.197369 171 8548ft 254kts
18-Mar-20 15:08 35.467020 -115.185891 171 8545ft 258kts
18-Mar-20 15:09 35.396024 -115.174346 171 8544ft 258kts
18-Mar-20 15:10 35.325024 -115.162921 171 8540ft 258kts
18-Mar-20 15:11 35.257583 -115.152207 171 8592ft 253kts
18-Mar-20 15:12 35.200634 -115.143012 171 10325ft 210kts
18-Mar-20 15:13 35.145133 -115.132984 171 12286ft 189kts
18-Mar-20 15:14 35.112091 -115.159164 264 14499ft 174kts
18-Mar-20 15:16 35.103217 -115.219355 252 16058ft 211kts
18-Mar-20 15:17 35.084347 -115.300562 251 16031ft 265kts
18-Mar-20 15:18 35.062546 -115.390818 251 16021ft 276kts
18-Mar-20 15:19 35.040224 -115.482719 251 16028ft 277kts
18-Mar-20 15:20 35.017423 -115.576279 250 16063ft 277kts
18-Mar-20 15:21 34.994882 -115.668390 250 16098ft 276kts
18-Mar-20 15:22 34.972339 -115.760157 249 16098ft 277kts
18-Mar-20 15:23 34.949708 -115.851975 249 16090ft 278kts
18-Mar-20 15:24 34.926872 -115.944283 249 16034ft 279kts
18-Mar-20 15:25 34.904210 -116.035555 248 16042ft 279kts
18-Mar-20 15:26 34.881557 -116.126466 248 16055ft 280kts
18-Mar-20 15:27 34.858688 -116.217880 248 16047ft 281kts
18-Mar-20 15:28 34.835462 -116.310444 248 16025ft 282kts
18-Mar-20 15:29 34.812375 -116.402113 248 16004ft 282kts
18-Mar-20 15:30 34.793888 -116.494532 259 16004ft 286kts
18-Mar-20 15:30 34.786173 -116.574657 259 16002ft 286kts
18-Mar-20 15:32 34.775179 -116.686940 258 16001ft 286kts
18-Mar-20 15:33 34.765684 -116.783018 258 16001ft 285kts
18-Mar-20 15:33 34.757739 -116.862804 258 16001ft 285kts
18-Mar-20 15:35 34.746608 -116.972765 261 14702ft 293kts
18-Mar-20 15:35 34.738534 -117.052212 265 13503ft 294kts
18-Mar-20 15:37 34.728123 -117.155599 264 11900ft 284kts
18-Mar-20 15:37 34.719795 -117.236748 264 10609ft 281kts
18-Mar-20 15:38 34.710059 -117.330871 264 9103ft 279kts
18-Mar-20 15:39 34.700340 -117.424109 263 7603ft 278kts
18-Mar-20 15:40 34.690550 -117.517312 263 6110ft 276kts
18-Mar-20 15:41 34.670720 -117.601451 236 6029ft 251kts
18-Mar-20 15:42 34.654672 -117.683129 266 6026ft 249kts
18-Mar-20 15:43 34.649494 -117.769695 266 5567ft 245kts
18-Mar-20 15:44 34.644263 -117.848444 271 5051ft 208kts
18-Mar-20 15:45 34.641234 -117.915351 267 4916ft 197kts
18-Mar-20 15:46 34.637554 -117.984359 267 3967ft 196kts
18-Mar-20 15:47 34.634214 -118.046336 268 3011ft 146kts
18-Mar-20 15:48 34.632274 -118.081383 266 2502ft 67kts
18-Mar-20 15:49 34.632188 -118.089218 5 2507ft 18kts
18-Mar-20 15:50 34.634298 -118.085094 86 2501ft 11kts
18-Mar-20 15:51 34.634432 -118.082816 85 2499ft 0kts

Navigation Log

Ident Type
Flight plan parsing failed, navigation log unavailable